Flight Track Log - Related Links

Times and Time Zones

All times are in EST time to prevent confusion due to time zone crossing. See the SWA4279 flight status page for this flight to view local times or setup timezone preferences in your user account.

Time Position Orientation Groundspeed Altitude Reporting Facility
EST Latitude Longitude Course Direction KTS MPH feet Rate Location/Type
Wed 07:29:19 PM 27.9667 -82.5500 192° South 162 186 600  Level Tampa TRACON
Wed 07:30:31 PM 27.9000 -82.5667 192° South 205 236 3,600 2,333 Climbing Tampa TRACON
Wed 07:31:25 PM 27.8833 -82.6000 241° Southwest 241 277 5,500 1,988 Climbing Tampa TRACON
Wed 07:33:11 PM 28.0161 -82.6033 359° North 320 368 8,900 1,229 Climbing Jacksonville Center
Wed 07:34:11 PM 28.0975 -82.6008 North 308 354 8,900 1,150 Level Jacksonville Center
Wed 07:35:11 PM 28.1767 -82.5958 North 291 335 11,200 2,300 Climbing Jacksonville Center
Wed 07:36:11 PM 28.2622 -82.5886 North 291 335 13,500 2,100 Climbing Jacksonville Center
Wed 07:37:11 PM 28.3542 -82.5836 North 311 358 15,400 1,650 Climbing Jacksonville Center
Wed 07:38:11 PM 28.4583 -82.5833 360° North 340 391 16,800 1,900 Climbing Jacksonville Center
Wed 07:39:11 PM 28.5689 -82.5853 359° North 372 428 19,200 1,950 Climbing Jacksonville Center
Wed 07:40:11 PM 28.6817 -82.5919 357° North 393 452 20,700 1,600 Climbing Jacksonville Center
Wed 07:41:11 PM 28.8111 -82.6106 353° North 407 468 22,400 1,700 Climbing Jacksonville Center
Wed 07:42:11 PM 28.9344 -82.6244 354° North 426 490 24,100 1,550 Climbing Jacksonville Center
Wed 07:43:11 PM 29.0514 -82.6431 352° North 454 522 25,500 1,350 Climbing Jacksonville Center
Wed 07:44:11 PM 29.1828 -82.6594 354° North 466 536 26,800 1,350 Climbing Jacksonville Center
Wed 07:45:11 PM 29.3144 -82.6806 352° North 472 543 28,200 1,350 Climbing Jacksonville Center
Wed 07:46:11 PM 29.4522 -82.6922 356° North 478 550 29,500 1,400 Climbing Jacksonville Center
Wed 07:47:11 PM 29.5942 -82.6944 359° North 494 568 31,000 1,350 Climbing Jacksonville Center
Wed 07:48:11 PM 29.7278 -82.6942 360° North 494 568 32,200 1,100 Climbing Jacksonville Center
Wed 07:49:11 PM 29.8675 -82.6914 North 489 563 33,200 1,100 Climbing Jacksonville Center
Wed 07:50:11 PM 30.0075 -82.6911 360° North 495 570 34,400 900 Climbing Jacksonville Center
Wed 07:51:11 PM 30.1453 -82.6861 North 490 564 35,000 300 Climbing Jacksonville Center
Wed 07:52:11 PM 30.2853 -82.6881 359° North 496 571 35,000  Level Jacksonville Center
Wed 07:53:11 PM 30.4250 -82.6853 North 496 571 35,000  Level Jacksonville Center
Wed 07:54:11 PM 30.5733 -82.6611 North 496 571 35,000  Level Jacksonville Center
Wed 07:55:11 PM 30.7067 -82.5931 24° Northeast 496 571 35,000 -500 Level Jacksonville Center
Wed 07:56:11 PM 30.8422 -82.5247 23° Northeast 510 587 34,000 -1,000 Descending Jacksonville Center
Wed 07:57:11 PM 30.9736 -82.4589 23° Northeast 515 593 33,000 -500 Descending Jacksonville Center
Wed 07:58:11 PM 31.1092 -82.3953 22° Northeast 515 593 33,000  Level Jacksonville Center
Wed 07:59:11 PM 31.2403 -82.3167 27° Northeast 515 593 33,000 50 Level Jacksonville Center
Wed 08:00:11 PM 31.3672 -82.2233 32° Northeast 520 598 33,100 750 Climbing Jacksonville Center
Wed 08:01:11 PM 31.4900 -82.1325 32° Northeast 532 612 34,500 950 Climbing Jacksonville Center
Wed 08:02:11 PM 31.6208 -82.0411 31° Northeast 532 612 35,000 250 Climbing Jacksonville Center
Wed 08:03:11 PM 31.7497 -81.9469 32° Northeast 543 625 35,000  Level Jacksonville Center
Wed 08:04:11 PM 31.8658 -81.8628 32° Northeast 543 625 35,000  Level Jacksonville Center
Wed 08:05:11 PM 32.0092 -81.7581 32° Northeast 541 623 35,000  Level Jacksonville Center
Wed 08:06:11 PM 32.1356 -81.6658 32° Northeast 541 623 35,000  Level Jacksonville Center
Wed 08:07:11 PM 32.2517 -81.5808 32° Northeast 541 623 35,000  Level Jacksonville Center
Wed 08:08:11 PM 32.3925 -81.4778 32° Northeast 535 616 35,000  Level Jacksonville Center
Wed 08:09:11 PM 32.5208 -81.3847 31° Northeast 535 616 35,000  Level Jacksonville Center
Wed 08:10:11 PM 32.6367 -81.2989 32° Northeast 530 610 35,000 250 Level Jacksonville Center
Wed 08:11:11 PM 32.7544 -81.2128 32° Northeast 537 618 35,500 400 Climbing Jacksonville Center
Wed 08:12:11 PM 32.8950 -81.1064 32° Northeast 537 618 35,800 250 Climbing Jacksonville Center
Wed 08:13:11 PM 33.0250 -81.0072 33° Northeast 537 618 36,000 100 Climbing Jacksonville Center
Wed 08:14:11 PM 33.1550 -80.9103 32° Northeast 537 618 36,000 250 Level Jacksonville Center
Wed 08:15:11 PM 33.2831 -80.8128 32° Northeast 537 618 36,500 450 Climbing Jacksonville Center
Wed 08:16:11 PM 33.4128 -80.7178 31° Northeast 537 618 36,900 250 Climbing Jacksonville Center
Wed 08:17:11 PM 33.5406 -80.6175 33° Northeast 537 618 37,000 50 Climbing Jacksonville Center
Wed 08:18:11 PM 33.6703 -80.5217 32° Northeast 537 618 37,000 -50 Level Jacksonville Center
Wed 08:19:11 PM 33.7975 -80.4208 33° Northeast 537 618 36,900  Descending Jacksonville Center
Wed 08:20:11 PM 33.9269 -80.3222 32° Northeast 537 618 37,000 50 Climbing Jacksonville Center
Wed 08:21:11 PM 34.0544 -80.2256 32° Northeast 537 618 37,000  Level Jacksonville Center
Wed 08:22:11 PM 34.1817 -80.1239 33° Northeast 537 618 37,000  Level Jacksonville Center
Wed 08:23:54 PM 34.4061 -79.9472 33° Northeast 544 626 37,000  Level Washington Center
Wed 08:24:55 PM 34.5364 -79.8497 32° Northeast 551 634 37,000  Level Washington Center
Wed 08:25:59 PM 34.6631 -79.7500 33° Northeast 544 626 37,000  Level Washington Center
Wed 08:27:00 PM 34.7856 -79.6517 33° Northeast 527 606 37,000  Level Washington Center
Wed 08:28:02 PM 34.9114 -79.5522 33° Northeast 532 612 37,000  Level Washington Center
Wed 08:29:01 PM 35.0344 -79.4456 35° Northeast 537 618 37,000  Level Washington Center
Wed 08:30:05 PM 35.1567 -79.3403 35° Northeast 538 619 37,000  Level Washington Center
Wed 08:31:06 PM 35.2814 -79.2333 35° Northeast 543 625 37,000  Level Washington Center
Wed 08:32:07 PM 35.4322 -79.1033 35° Northeast 543 625 37,000  Level Washington Center
Wed 08:33:11 PM 35.5575 -78.9942 35° Northeast 545 627 37,000  Level Washington Center
Wed 08:34:12 PM 35.6803 -78.8881 35° Northeast 533 613 37,000  Level Washington Center
Wed 08:35:13 PM 35.8056 -78.7775 36° Northeast 543 625 37,000  Level Washington Center
Wed 08:36:15 PM 35.9300 -78.6686 35° Northeast 543 625 37,000  Level Washington Center
Wed 08:37:17 PM 36.0536 -78.5581 36° Northeast 543 625 37,000  Level Washington Center
Wed 08:38:19 PM 36.1767 -78.4475 36° Northeast 546 628 37,000  Level Washington Center
Wed 08:39:21 PM 36.2997 -78.3386 35° Northeast 544 626 37,000  Level Washington Center
Wed 08:40:22 PM 36.4222 -78.2283 36° Northeast 543 625 37,000  Level Washington Center
Wed 08:41:22 PM 36.5617 -78.1036 36° Northeast 537 618 37,000  Level Washington Center
Wed 08:42:25 PM 36.6836 -77.9933 36° Northeast 540 621 37,000  Level Washington Center
Wed 08:43:26 PM 36.8047 -77.8844 36° Northeast 540 621 37,000  Level Washington Center
Wed 08:44:27 PM 36.9253 -77.7733 36° Northeast 540 621 37,000  Level Washington Center
Wed 08:45:30 PM 37.0472 -77.6625 36° Northeast 540 621 37,000  Level Washington Center
Wed 08:46:30 PM 37.1669 -77.5522 36° Northeast 540 621 37,000  Level Washington Center
Wed 08:47:32 PM 37.3128 -77.4197 36° Northeast 537 618 37,000  Level Washington Center
Wed 08:48:34 PM 37.4350 -77.3072 36° Northeast 538 619 37,000  Level Washington Center
Wed 08:49:34 PM 37.5569 -77.1933 37° Northeast 538 619 37,000  Level Washington Center
Wed 08:50:36 PM 37.6789 -77.0806 36° Northeast 537 618 37,000  Level Washington Center
Wed 08:51:37 PM 37.7986 -76.9683 37° Northeast 537 618 37,000  Level Washington Center
Wed 08:52:41 PM 37.9181 -76.8561 37° Northeast 536 617 37,000  Level Washington Center
Wed 08:53:41 PM 38.0367 -76.7436 37° Northeast 535 616 37,000  Level Washington Center
Wed 08:54:45 PM 38.1556 -76.6322 36° Northeast 535 616 37,000 -581 Level Washington Center
Wed 08:55:45 PM 38.2717 -76.5197 37° Northeast 530 610 35,800 -1,835 Descending Washington Center
Wed 08:56:46 PM 38.3997 -76.4000 36° Northeast 512 589 33,300 -1,355 Descending Washington Center
Wed 08:57:49 PM 38.5114 -76.2908 37° Northeast 510 587 33,000 -148 Descending Washington Center
Wed 08:58:48 PM 38.6272 -76.1797 37° Northeast 518 596 33,000  Level Washington Center
Wed 08:59:52 PM 38.7431 -76.0675 37° Northeast 540 621 33,000  Level Washington Center
Wed 09:00:53 PM 38.8633 -75.9508 37° Northeast 542 624 33,000  Level Washington Center
Wed 09:01:54 PM 39.0097 -75.8083 37° Northeast 551 634 33,000  Level Washington Center
Wed 09:02:55 PM 39.1336 -75.6894 37° Northeast 557 641 33,000  Level Washington Center
Wed 09:03:59 PM 39.2553 -75.5683 38° Northeast 558 642 33,000 -48 Level Washington Center
Wed 09:04:59 PM 39.3778 -75.4467 37° Northeast 555 639 32,900  Descending Washington Center
Wed 09:05:59 PM 39.4989 -75.3253 38° Northeast 555 639 33,000 48 Climbing Washington Center
Wed 09:07:03 PM 39.6208 -75.2022 38° Northeast 555 639 33,000  Level Washington Center
Wed 09:08:05 PM 39.7617 -75.0622 37° Northeast 555 639 33,000  Level Washington Center
Wed 09:08:54 PM 39.8556 -74.9650 38° Northeast 554 638 33,000  Level New York Center
Wed 09:09:54 PM 39.9750 -74.8314 41° Northeast 561 646 33,000  Level New York Center
Wed 09:10:54 PM 40.1086 -74.7578 23° Northeast 532 612 33,000  Level New York Center
Wed 09:11:54 PM 40.2481 -74.7086 15° North 518 596 33,000  Level New York Center
Wed 09:13:59 PM 40.5428 -74.6047 15° North 510 587 33,000  Level Boston Center
Wed 09:15:00 PM 40.6794 -74.5567 15° North 510 587 33,000  Level Boston Center
Wed 09:16:01 PM 40.8158 -74.5081 15° North 508 585 33,000  Level Boston Center
Wed 09:17:02 PM 40.9511 -74.4608 15° North 505 581 33,000  Level Boston Center
Wed 09:18:02 PM 41.0858 -74.4125 15° North 504 580 33,000  Level Boston Center
Wed 09:19:03 PM 41.2236 -74.3636 15° North 503 579 33,000  Level Boston Center
Wed 09:20:04 PM 41.3322 -74.3242 15° North 505 581 33,000  Level Boston Center
Wed 09:21:05 PM 41.4942 -74.2664 15° North 502 578 33,000  Level Boston Center
Wed 09:22:06 PM 41.6283 -74.2175 15° North 500 575 33,000  Level Boston Center
Wed 09:23:06 PM 41.7600 -74.1692 15° North 493 567 33,000  Level Boston Center
Wed 09:24:07 PM 41.8956 -74.1189 15° North 493 567 33,000 -393 Level Boston Center
Wed 09:25:08 PM 42.0086 -74.0031 37° Northeast 531 611 32,200 -836 Descending Boston Center
Wed 09:26:09 PM 42.0875 -73.8342 58° Northeast 535 616 31,300 -934 Descending Boston Center
Wed 09:27:10 PM 42.1639 -73.6703 58° Northeast 527 606 30,300 -1,041 Descending Boston Center
Wed 09:28:10 PM 42.2544 -73.4789 57° Northeast 510 587 29,200 -1,041 Descending Boston Center
Wed 09:29:11 PM 42.3267 -73.3211 58° Northeast 499 574 28,200 -984 Descending Boston Center
Wed 09:30:12 PM 42.4003 -73.1628 58° Northeast 495 570 27,200 -836 Descending Boston Center
Wed 09:31:13 PM 42.4569 -73.0381 58° Northeast 491 565 26,500 -885 Descending Boston Center
Wed 09:32:14 PM 42.5394 -72.8600 58° Northeast 475 547 25,400 -1,835 Descending Boston Center
Wed 09:33:14 PM 42.6078 -72.7061 59° Northeast 475 547 22,800 -2,132 Descending Boston Center
Wed 09:34:15 PM 42.6728 -72.5656 58° Northeast 479 551 21,100 -2,164 Descending Boston Center
Wed 09:35:16 PM 42.7375 -72.4211 59° Northeast 457 526 18,400 -3,000 Descending Boston Center
Wed 09:36:17 PM 42.7994 -72.2506 64° Northeast 445 512 15,000 -3,344 Descending Boston Center
Wed 09:37:18 PM 42.8094 -72.0947 85° East 415 478 11,600 -2,579 Descending Boston Center
Wed 09:38:18 PM 42.8194 -71.9567 84° East 374 430 9,800 -1,537 Descending Boston Center
Wed 09:39:19 PM 42.8700 -71.8508 57° Northeast 317 365 8,500 -1,328 Descending Boston Center
Wed 09:40:20 PM 42.9103 -71.7556 60° Northeast 291 335 7,100 -1,475 Descending Boston Center
Wed 09:41:21 PM 42.9508 -71.6664 58° Northeast 292 336 5,500 -1,328 Descending Boston Center
Wed 09:42:22 PM 43.0097 -71.5956 41° Northeast 283 326 4,400 -1,041 Descending Boston Center
Wed 09:43:22 PM 43.0497 -71.5297 50° Northeast 226 260 3,400 -1,041 Descending Boston Center
Wed 09:44:23 PM 43.0286 -71.4833 122° Southeast 155 178 2,300 -885 Descending Boston Center
Wed 09:45:24 PM 42.9947 -71.4717 166° South 128 147 1,600 -738 Descending Boston Center
Wed 09:46:25 PM 42.9611 -71.4506 155° Southeast 123 142 800 -645 Descending Boston Center
Wed 09:47:25 PM 42.9339 -71.4347 157° South 122 140 300 -500 Descending Boston Center
Wed 09:49:00 PM 42.9328 -71.4358 316° Northwest  Level Estimated

Login

Don't have an account? Register now (free) for customized features, flight alerts, and more!